createdAt,value
2019-04-20T00:01:03.361Z,14.85
2019-04-20T00:03:39.435Z,14.77
2019-04-20T00:06:11.221Z,14.76
2019-04-20T00:08:43.146Z,14.72
2019-04-20T00:11:23.432Z,14.66
2019-04-20T00:13:58.380Z,14.61
2019-04-20T00:16:21.069Z,14.51
2019-04-20T00:18:56.690Z,14.42
2019-04-20T00:21:42.743Z,14.31
2019-04-20T00:24:23.382Z,14.15
2019-04-20T00:27:32.753Z,13.99
2019-04-20T00:29:47.852Z,13.91
2019-04-20T00:32:09.829Z,13.88
2019-04-20T00:34:36.408Z,13.82
2019-04-20T00:37:05.882Z,13.79
2019-04-20T00:39:38.282Z,13.77
2019-04-20T00:42:13.372Z,13.74
2019-04-20T00:44:45.767Z,13.67
2019-04-20T00:47:33.435Z,13.67
2019-04-20T00:50:04.192Z,13.57
2019-04-20T00:52:35.670Z,13.49
2019-04-20T00:54:55.905Z,13.42
2019-04-20T00:57:36.895Z,13.42
2019-04-20T01:00:17.570Z,13.44
2019-04-20T01:02:43.508Z,13.47
2019-04-20T01:05:22.937Z,13.48
2019-04-20T01:07:56.300Z,13.48
2019-04-20T01:10:28.351Z,13.49
2019-04-20T01:13:06.046Z,13.48
2019-04-20T01:15:38.710Z,13.48
2019-04-20T01:18:04.803Z,13.47
2019-04-20T01:20:36.513Z,13.43
2019-04-20T01:23:15.261Z,13.42
2019-04-20T01:25:43.696Z,13.42
2019-04-20T01:28:34.841Z,13.38
2019-04-20T01:31:00.206Z,13.36
2019-04-20T01:33:32.624Z,13.33
2019-04-20T01:36:08.751Z,13.34
2019-04-20T01:38:40.144Z,13.35
2019-04-20T01:40:59.711Z,13.36
2019-04-20T01:43:31.236Z,13.33
2019-04-20T01:46:09.293Z,13.33
2019-04-20T01:48:38.688Z,13.32
2019-04-20T01:51:16.885Z,13.31
2019-04-20T01:54:00.831Z,13.27
2019-04-20T01:56:32.223Z,13.23
2019-04-20T01:59:18.779Z,13.17
2019-04-20T02:01:55.635Z,13.13
2019-04-20T02:04:40.452Z,13.10
2019-04-20T02:07:09.105Z,13.11
2019-04-20T02:09:48.614Z,13.09
2019-04-20T02:12:20.312Z,13.04
2019-04-20T02:14:53.120Z,12.85
2019-04-20T02:17:29.841Z,12.69
2019-04-20T02:20:12.642Z,12.63
2019-04-20T02:22:43.299Z,12.60
2019-04-20T02:24:59.535Z,12.53
2019-04-20T02:27:40.532Z,12.47
2019-04-20T02:30:41.102Z,12.47
2019-04-20T02:33:37.896Z,12.38
2019-04-20T02:35:56.321Z,12.25
2019-04-20T02:38:21.759Z,12.20
2019-04-20T02:43:40.158Z,12.11
2019-04-20T02:48:33.673Z,12.11
2019-04-20T02:51:06.254Z,12.11
2019-04-20T02:53:51.131Z,12.07
2019-04-20T02:56:15.269Z,12.07
2019-04-20T02:58:50.273Z,12.05
2019-04-20T03:01:20.474Z,12.00
2019-04-20T03:03:46.449Z,11.92
2019-04-20T03:06:23.038Z,11.87
2019-04-20T03:09:11.353Z,11.83
2019-04-20T03:11:46.488Z,11.81
2019-04-20T03:14:09.525Z,11.81
2019-04-20T03:16:39.690Z,11.82
2019-04-20T03:19:14.559Z,11.82
2019-04-20T03:21:51.420Z,11.87
2019-04-20T03:26:57.914Z,11.88
2019-04-20T03:29:46.939Z,11.92
2019-04-20T03:32:57.903Z,11.97
2019-04-20T03:37:44.574Z,11.96
2019-04-20T03:40:04.323Z,11.98
2019-04-20T03:42:24.341Z,11.78
2019-04-20T03:45:01.847Z,11.53
2019-04-20T03:47:38.298Z,11.39
2019-04-20T03:50:29.379Z,11.31
2019-04-20T03:53:19.122Z,11.26
2019-04-20T03:55:44.448Z,11.22
2019-04-20T03:58:24.342Z,11.23
2019-04-20T04:01:22.728Z,11.26
2019-04-20T04:03:58.779Z,11.23
2019-04-20T04:06:23.485Z,11.22
2019-04-20T04:08:57.521Z,11.29
2019-04-20T04:11:35.101Z,11.30
2019-04-20T04:13:50.736Z,11.31
2019-04-20T04:16:27.794Z,11.34
2019-04-20T04:19:07.586Z,11.36
2019-04-20T04:21:45.792Z,11.30
2019-04-20T04:24:12.906Z,11.17
2019-04-20T04:26:51.175Z,11.10
2019-04-20T04:29:29.858Z,11.07
2019-04-20T04:32:05.488Z,11.06
2019-04-20T04:34:33.758Z,11.04
2019-04-20T04:37:14.226Z,10.99
2019-04-20T04:39:42.842Z,10.99
2019-04-20T04:42:25.105Z,11.06
2019-04-20T04:44:40.147Z,11.04
2019-04-20T04:47:05.245Z,10.88
2019-04-20T04:49:38.178Z,10.81
2019-04-20T04:52:12.418Z,10.80
2019-04-20T04:54:47.452Z,10.75
2019-04-20T04:57:13.650Z,10.69
2019-04-20T04:59:45.143Z,10.68
2019-04-20T05:02:17.852Z,10.67
2019-04-20T05:05:19.307Z,10.67
2019-04-20T05:07:47.829Z,10.67
2019-04-20T05:10:11.887Z,10.68
2019-04-20T05:12:44.005Z,10.71
2019-04-20T05:15:32.385Z,10.74
2019-04-20T05:18:05.777Z,10.78
2019-04-20T05:20:46.896Z,10.84
2019-04-20T05:23:19.367Z,10.88
2019-04-20T05:26:04.037Z,10.92
2019-04-20T05:28:29.972Z,10.97
2019-04-20T05:30:55.002Z,10.97
2019-04-20T05:33:34.977Z,10.96
2019-04-20T05:36:12.763Z,10.95
2019-04-20T05:39:13.174Z,11.07
2019-04-20T05:41:16.991Z,11.13
2019-04-20T05:43:59.488Z,11.27
2019-04-20T05:46:37.326Z,11.36
2019-04-20T05:49:11.806Z,11.45
2019-04-20T05:51:39.676Z,11.50
2019-04-20T05:54:13.858Z,11.60
2019-04-20T05:56:46.862Z,11.72
2019-04-20T05:59:21.466Z,11.81
2019-04-20T06:01:58.634Z,11.90
2019-04-20T06:04:31.665Z,12.01
2019-04-20T06:07:04.021Z,12.12
2019-04-20T06:09:37.931Z,12.24
2019-04-20T06:12:19.957Z,12.38
2019-04-20T06:14:53.704Z,12.56
2019-04-20T06:17:34.280Z,12.73
2019-04-20T06:20:09.043Z,12.84
2019-04-20T06:22:41.406Z,13.00
2019-04-20T06:25:31.612Z,13.19
2019-04-20T06:28:02.346Z,13.34
2019-04-20T06:30:13.712Z,13.45
2019-04-20T06:34:08.750Z,13.53
2019-04-20T06:36:29.446Z,13.63
2019-04-20T06:39:02.328Z,13.83
2019-04-20T06:41:43.473Z,13.94
2019-04-20T06:44:08.570Z,14.05
2019-04-20T06:46:50.569Z,14.19
2019-04-20T06:49:18.409Z,14.27
2019-04-20T06:51:52.744Z,14.38
2019-04-20T06:54:17.362Z,14.48
2019-04-20T06:57:01.636Z,14.56
2019-04-20T06:59:41.785Z,14.67
2019-04-20T07:02:11.939Z,14.75
2019-04-20T07:07:14.379Z,14.93
2019-04-20T07:09:58.255Z,15.09
2019-04-20T07:12:12.529Z,15.21
2019-04-20T07:14:42.664Z,15.28
2019-04-20T07:20:00.318Z,15.48
2019-04-20T07:22:46.539Z,15.55
2019-04-20T07:25:19.027Z,15.68
2019-04-20T07:27:53.553Z,15.83
2019-04-20T07:30:29.666Z,15.93
2019-04-20T07:33:04.205Z,16.05
2019-04-20T07:35:35.692Z,16.16
2019-04-20T07:40:40.118Z,16.35
2019-04-20T07:43:08.151Z,16.50
2019-04-20T07:45:41.552Z,16.64
2019-04-20T07:48:21.309Z,16.78
2019-04-20T07:50:44.931Z,16.90
2019-04-20T07:53:20.188Z,17.00
2019-04-20T07:56:07.232Z,17.12
2019-04-20T07:58:25.072Z,17.26
2019-04-20T08:01:15.238Z,17.44
2019-04-20T08:03:45.700Z,17.61
2019-04-20T08:06:11.615Z,17.73
2019-04-20T08:08:53.134Z,17.84
2019-04-20T08:11:32.090Z,18.02
2019-04-20T08:14:07.347Z,18.16
2019-04-20T08:19:04.170Z,18.36
2019-04-20T08:21:42.285Z,18.44
2019-04-20T08:24:13.182Z,18.54
2019-04-20T08:26:35.759Z,18.71
2019-04-20T08:29:15.482Z,18.84
2019-04-20T08:31:56.239Z,18.88
2019-04-20T08:34:41.623Z,18.93
2019-04-20T08:37:07.008Z,19.00
2019-04-20T08:39:53.835Z,19.06
2019-04-20T08:42:20.545Z,19.30
2019-04-20T08:47:35.243Z,19.49
2019-04-20T08:50:09.540Z,19.57
2019-04-20T08:52:57.022Z,19.66
2019-04-20T08:55:10.613Z,19.91
2019-04-20T08:57:24.738Z,19.83
2019-04-20T08:59:56.305Z,19.98
2019-04-20T09:02:28.105Z,20.19
2019-04-20T09:05:06.623Z,20.38
2019-04-20T09:07:40.826Z,20.55
2019-04-20T09:13:01.504Z,20.77
2019-04-20T09:15:16.861Z,20.70
2019-04-20T09:17:56.543Z,20.60
2019-04-20T09:20:31.747Z,20.74
2019-04-20T09:23:18.364Z,20.89
2019-04-20T09:26:10.142Z,21.04
2019-04-20T09:28:28.496Z,21.21
2019-04-20T09:31:20.106Z,21.32
2019-04-20T09:34:13.370Z,21.42
2019-04-20T09:36:49.859Z,21.53
2019-04-20T09:39:30.690Z,21.57
2019-04-20T09:42:12.011Z,21.85
2019-04-20T09:44:47.823Z,21.93
2019-04-20T09:47:23.801Z,21.97
2019-04-20T09:50:00.700Z,22.09
2019-04-20T09:52:37.758Z,22.30
2019-04-20T09:55:10.843Z,22.52
2019-04-20T09:57:43.875Z,22.64
2019-04-20T10:00:22.723Z,22.75
2019-04-20T10:02:39.253Z,22.74
2019-04-20T10:05:09.823Z,22.65
2019-04-20T10:07:42.619Z,22.65
2019-04-20T10:10:24.365Z,22.82
2019-04-20T10:12:47.961Z,22.90
2019-04-20T10:15:22.950Z,22.99
2019-04-20T10:17:52.435Z,22.74
2019-04-20T10:20:29.676Z,22.96
2019-04-20T10:22:56.819Z,23.24
2019-04-20T10:25:28.711Z,23.22
2019-04-20T10:28:01.313Z,23.39
2019-04-20T10:30:34.694Z,23.63
2019-04-20T10:33:07.669Z,23.59
2019-04-20T10:35:39.490Z,23.51
2019-04-20T10:38:15.732Z,23.66
2019-04-20T10:40:58.178Z,23.68
2019-04-20T10:43:20.318Z,23.84
2019-04-20T10:45:52.915Z,24.06
2019-04-20T10:48:24.513Z,24.38
2019-04-20T10:50:56.884Z,24.49
2019-04-20T10:53:28.386Z,24.44
2019-04-20T10:56:01.152Z,24.40
2019-04-20T10:58:33.747Z,24.50
2019-04-20T11:01:05.551Z,24.30
2019-04-20T11:03:38.244Z,24.52
2019-04-20T11:06:11.019Z,24.76
2019-04-20T11:08:42.570Z,24.60
2019-04-20T11:11:21.297Z,24.78
2019-04-20T11:13:47.638Z,25.00
2019-04-20T11:16:20.204Z,25.09
2019-04-20T11:18:51.774Z,25.35
2019-04-20T11:21:24.678Z,25.43
2019-04-20T11:23:56.395Z,25.33
2019-04-20T11:26:28.607Z,25.72
2019-04-20T11:29:02.130Z,26.08
2019-04-20T11:31:40.575Z,25.83
2019-04-20T11:34:08.088Z,25.92
2019-04-20T11:36:39.396Z,26.26
2019-04-20T11:39:12.279Z,26.24
2019-04-20T11:41:43.754Z,26.37
2019-04-20T11:44:15.745Z,26.17
2019-04-20T11:46:48.317Z,26.46
2019-04-20T11:49:19.731Z,26.58
2019-04-20T11:51:51.813Z,26.51
2019-04-20T11:54:24.437Z,26.69
2019-04-20T11:56:57.316Z,26.83
2019-04-20T11:59:30.387Z,27.06
2019-04-20T12:02:05.805Z,26.36
2019-04-20T12:04:47.149Z,26.03
2019-04-20T12:07:12.908Z,25.98
2019-04-20T12:09:45.650Z,26.24
2019-04-20T12:12:27.725Z,26.74
2019-04-20T12:14:50.537Z,26.59
2019-04-20T12:17:21.922Z,26.73
2019-04-20T12:19:55.310Z,26.50
2019-04-20T12:22:28.204Z,26.66
2019-04-20T12:25:00.430Z,26.56
2019-04-20T12:27:32.528Z,26.79
2019-04-20T12:30:09.988Z,27.16
2019-04-20T12:32:45.562Z,27.32
2019-04-20T12:35:16.227Z,27.59
2019-04-20T12:37:47.661Z,27.52
2019-04-20T12:40:19.890Z,27.79
2019-04-20T12:42:52.964Z,27.60
2019-04-20T12:45:26.636Z,27.25
2019-04-20T12:47:58.009Z,27.10
2019-04-20T12:50:29.852Z,27.09
2019-04-20T12:53:02.349Z,26.90
2019-04-20T12:55:34.736Z,27.10
2019-04-20T12:58:06.456Z,27.01
2019-04-20T13:00:49.631Z,26.78
2019-04-20T13:03:21.405Z,26.67
2019-04-20T13:05:54.241Z,26.81
2019-04-20T13:08:33.662Z,26.77
2019-04-20T13:11:02.446Z,27.16
2019-04-20T13:13:52.489Z,27.14
2019-04-20T13:16:28.410Z,27.11
2019-04-20T13:19:01.599Z,27.69
2019-04-20T13:21:33.036Z,27.48
2019-04-20T13:24:05.118Z,27.54
2019-04-20T13:26:37.272Z,27.09
2019-04-20T13:29:08.842Z,26.99
2019-04-20T13:31:40.314Z,26.86
2019-04-20T13:34:13.160Z,26.78
2019-04-20T13:36:46.264Z,26.82
2019-04-20T13:39:17.656Z,27.01
2019-04-20T13:42:00.941Z,27.30
2019-04-20T13:44:22.156Z,27.56
2019-04-20T13:46:54.704Z,27.46
2019-04-20T13:49:27.110Z,27.33
2019-04-20T13:51:59.072Z,27.41
2019-04-20T13:54:31.637Z,27.46
2019-04-20T13:57:05.891Z,27.62
2019-04-20T13:59:42.003Z,27.55
2019-04-20T14:02:31.356Z,27.62
2019-04-20T14:05:04.666Z,28.14
2019-04-20T14:07:37.648Z,27.61
2019-04-20T14:10:09.341Z,27.65
2019-04-20T14:12:53.304Z,27.50
2019-04-20T14:15:15.262Z,27.09
2019-04-20T14:17:47.006Z,27.09
2019-04-20T14:20:20.288Z,27.15
2019-04-20T14:22:52.465Z,27.68
2019-04-20T14:25:24.882Z,28.12
2019-04-20T14:27:57.297Z,28.59
2019-04-20T14:30:29.041Z,28.75
2019-04-20T14:33:00.993Z,28.70
2019-04-20T14:35:32.876Z,28.19
2019-04-20T14:38:05.786Z,27.94
2019-04-20T14:40:37.455Z,28.30
2019-04-20T14:43:08.972Z,28.76
2019-04-20T14:45:40.834Z,28.68
2019-04-20T14:48:12.295Z,28.49
2019-04-20T14:50:43.553Z,28.83
2019-04-20T14:53:15.897Z,29.26
2019-04-20T14:55:47.263Z,29.03
2019-04-20T14:58:41.410Z,28.61
2019-04-20T15:01:14.375Z,28.62
2019-04-20T15:03:52.061Z,28.42
2019-04-20T15:06:19.950Z,28.75
2019-04-20T15:08:52.573Z,28.51
2019-04-20T15:11:24.999Z,28.93
2019-04-20T15:13:56.593Z,29.05
2019-04-20T15:16:28.741Z,28.58
2019-04-20T15:19:03.129Z,28.55
2019-04-20T15:21:39.662Z,28.96
2019-04-20T15:24:11.383Z,29.20
2019-04-20T15:26:42.691Z,29.47
2019-04-20T15:29:14.611Z,29.55
2019-04-20T15:31:46.022Z,29.24
2019-04-20T15:34:17.399Z,29.06
2019-04-20T15:36:49.791Z,29.58
2019-04-20T15:39:21.375Z,29.84
2019-04-20T15:41:53.627Z,29.18
2019-04-20T15:44:25.229Z,29.47
2019-04-20T15:46:57.337Z,29.78
2019-04-20T15:49:29.616Z,29.77
2019-04-20T15:52:01.790Z,29.23
2019-04-20T15:54:33.850Z,28.67
2019-04-20T15:57:14.201Z,28.79
2019-04-20T15:59:38.463Z,29.18
2019-04-20T16:02:11.571Z,29.51
2019-04-20T16:04:54.374Z,29.58
2019-04-20T16:07:25.815Z,29.61
2019-04-20T16:09:59.125Z,29.66
2019-04-20T16:12:31.118Z,29.96
2019-04-20T16:15:03.823Z,30.07
2019-04-20T16:17:39.094Z,30.17
2019-04-20T16:20:14.011Z,30.21
2019-04-20T16:22:42.594Z,29.80
2019-04-20T16:25:13.982Z,29.93
2019-04-20T16:27:45.683Z,29.90
2019-04-20T16:30:19.826Z,29.90
2019-04-20T16:32:52.530Z,30.05
2019-04-20T16:35:24.977Z,29.79
2019-04-20T16:37:56.282Z,29.77
2019-04-20T16:40:27.567Z,29.88
2019-04-20T16:43:00.396Z,29.90
2019-04-20T16:45:32.978Z,30.06
2019-04-20T16:48:05.506Z,29.45
2019-04-20T16:50:37.849Z,29.05
2019-04-20T16:53:09.091Z,28.49
2019-04-20T16:55:40.952Z,28.66
2019-04-20T16:58:13.384Z,28.84
2019-04-20T17:00:45.501Z,28.86
2019-04-20T17:03:17.291Z,28.74
2019-04-20T17:05:51.308Z,28.66
2019-04-20T17:08:22.919Z,28.53
2019-04-20T17:10:55.834Z,28.54
2019-04-20T17:13:35.332Z,28.51
2019-04-20T17:16:01.785Z,28.30
2019-04-20T17:18:34.442Z,28.29
2019-04-20T17:21:15.853Z,28.38
2019-04-20T17:23:41.676Z,28.22
2019-04-20T17:26:14.712Z,27.94
2019-04-20T17:29:06.242Z,27.37
2019-04-20T17:31:53.547Z,27.17
2019-04-20T17:34:43.002Z,27.06
2019-04-20T17:36:58.349Z,27.00
2019-04-20T17:39:39.776Z,26.93
2019-04-20T17:42:19.874Z,26.79
2019-04-20T17:44:52.048Z,26.73
2019-04-20T17:47:32.946Z,26.65
2019-04-20T17:50:05.262Z,26.54
2019-04-20T17:52:42.697Z,26.44
2019-04-20T17:54:55.814Z,26.32
2019-04-20T17:57:29.051Z,26.48
2019-04-20T18:00:05.265Z,26.55
2019-04-20T18:02:59.011Z,26.62
2019-04-20T18:05:38.850Z,26.60
2019-04-20T18:08:15.493Z,26.41
2019-04-20T18:10:40.378Z,26.26
2019-04-20T18:13:09.363Z,26.08
2019-04-20T18:15:48.768Z,25.95
2019-04-20T18:18:35.461Z,25.80
2019-04-20T18:21:06.842Z,25.63
2019-04-20T18:23:41.826Z,25.41
2019-04-20T18:26:35.254Z,25.28
2019-04-20T18:29:21.357Z,25.22
2019-04-20T18:31:19.591Z,25.08
2019-04-20T18:33:54.011Z,24.96
2019-04-20T18:36:31.239Z,24.80
2019-04-20T18:39:04.266Z,24.65
2019-04-20T18:41:41.555Z,24.49
2019-04-20T18:44:06.621Z,24.32
2019-04-20T18:47:02.023Z,24.18
2019-04-20T18:49:28.242Z,24.01
2019-04-20T18:51:44.374Z,23.83
2019-04-20T18:54:21.350Z,23.49
2019-04-20T18:56:50.843Z,23.27
2019-04-20T18:59:30.213Z,23.19
2019-04-20T19:01:57.117Z,23.08
2019-04-20T19:04:30.057Z,22.96
2019-04-20T19:07:03.733Z,22.89
2019-04-20T19:09:36.458Z,22.65
2019-04-20T19:12:12.715Z,22.39
2019-04-20T19:15:19.731Z,22.25
2019-04-20T19:17:49.705Z,22.15
2019-04-20T19:20:26.909Z,22.07
2019-04-20T19:22:57.988Z,21.99
2019-04-20T19:25:33.181Z,21.80
2019-04-20T19:28:04.679Z,21.71
2019-04-20T19:30:46.157Z,21.61
2019-04-20T19:33:26.094Z,21.44
2019-04-20T19:35:53.108Z,21.22
2019-04-20T19:38:21.904Z,20.94
2019-04-20T19:40:58.323Z,20.71
2019-04-20T19:43:28.793Z,20.63
2019-04-20T19:46:36.627Z,20.61
2019-04-20T19:48:43.255Z,20.50
2019-04-20T19:51:24.030Z,20.43
2019-04-20T19:54:02.745Z,20.34
2019-04-20T19:56:28.151Z,20.28
2019-04-20T19:59:06.112Z,20.16
2019-04-20T20:01:19.963Z,20.05
2019-04-20T20:03:56.543Z,19.96
2019-04-20T20:06:33.162Z,19.81
2019-04-20T20:09:04.165Z,19.72
2019-04-20T20:11:38.520Z,19.60
2019-04-20T20:14:09.807Z,19.48
2019-04-20T20:16:59.480Z,19.37
2019-04-20T20:19:29.574Z,19.30
2019-04-20T20:21:59.071Z,19.08
2019-04-20T20:24:19.974Z,18.80
2019-04-20T20:26:58.513Z,18.64
2019-04-20T20:29:35.848Z,18.60
2019-04-20T20:32:10.320Z,18.46
2019-04-20T20:34:39.806Z,18.28
2019-04-20T20:37:09.686Z,18.23
2019-04-20T20:39:40.388Z,18.23
2019-04-20T20:42:25.743Z,18.00
2019-04-20T20:44:52.617Z,17.81
2019-04-20T20:47:41.339Z,17.77
2019-04-20T20:50:20.289Z,17.81
2019-04-20T20:52:43.418Z,17.77
2019-04-20T20:55:06.925Z,17.70
2019-04-20T20:57:46.293Z,17.56
2019-04-20T21:00:22.630Z,17.37
2019-04-20T21:02:50.324Z,17.26
2019-04-20T21:05:15.546Z,17.22
2019-04-20T21:07:49.760Z,17.18
2019-04-20T21:10:25.653Z,17.18
2019-04-20T21:12:57.833Z,17.15
2019-04-20T21:15:28.268Z,17.08
2019-04-20T21:18:20.912Z,17.05
2019-04-20T21:20:51.559Z,16.95
2019-04-20T21:23:18.723Z,16.90
2019-04-20T21:25:57.136Z,16.78
2019-04-20T21:28:28.839Z,16.64
2019-04-20T21:31:08.126Z,16.38
2019-04-20T21:33:37.756Z,15.92
2019-04-20T21:36:07.478Z,15.67
2019-04-20T21:38:41.452Z,15.58
2019-04-20T21:41:16.151Z,15.56
2019-04-20T21:43:46.400Z,15.54
2019-04-20T21:46:18.743Z,15.57
2019-04-20T21:49:08.146Z,15.40
2019-04-20T21:51:37.316Z,15.35
2019-04-20T21:54:01.427Z,15.37
2019-04-20T21:56:33.560Z,15.29
2019-04-20T21:59:14.350Z,15.23
2019-04-20T22:01:41.181Z,15.14
2019-04-20T22:04:12.254Z,15.16
2019-04-20T22:06:44.563Z,15.16
2019-04-20T22:09:16.123Z,15.17
2019-04-20T22:11:49.773Z,15.17
2019-04-20T22:14:26.589Z,15.19
2019-04-20T22:16:58.586Z,15.21
2019-04-20T22:19:41.161Z,15.19
2019-04-20T22:22:16.139Z,15.19
2019-04-20T22:24:55.726Z,15.23
2019-04-20T22:27:18.564Z,15.26
2019-04-20T22:29:46.074Z,15.37
2019-04-20T22:32:20.447Z,15.45
2019-04-20T22:34:57.026Z,15.55
2019-04-20T22:37:28.745Z,15.59
2019-04-20T22:39:59.583Z,15.52
2019-04-20T22:42:38.658Z,15.32
2019-04-20T22:45:10.646Z,15.19
2019-04-20T22:47:40.799Z,15.16
2019-04-20T22:50:24.972Z,15.15
2019-04-20T22:52:55.309Z,15.11
2019-04-20T22:55:43.154Z,15.09
2019-04-20T22:58:01.336Z,14.99
2019-04-20T23:00:35.117Z,14.91
2019-04-20T23:02:58.762Z,14.86
2019-04-20T23:05:30.981Z,14.81
2019-04-20T23:08:02.602Z,14.80
2019-04-20T23:10:39.097Z,14.80
2019-04-20T23:13:07.419Z,14.80
2019-04-20T23:15:42.410Z,14.82
2019-04-20T23:18:13.944Z,14.82
2019-04-20T23:20:45.950Z,14.80
2019-04-20T23:23:21.131Z,14.79
2019-04-20T23:25:51.313Z,14.75
2019-04-20T23:28:24.226Z,14.73
2019-04-20T23:31:02.583Z,14.71
2019-04-20T23:33:29.835Z,14.68
2019-04-20T23:36:03.233Z,14.66
2019-04-20T23:38:34.776Z,14.60
2019-04-20T23:41:06.109Z,14.55
2019-04-20T23:43:40.457Z,14.54
2019-04-20T23:46:25.690Z,14.51
2019-04-20T23:49:18.119Z,14.50
2019-04-20T23:52:05.704Z,14.47
2019-04-20T23:54:22.071Z,14.52
2019-04-20T23:56:50.086Z,14.49
2019-04-20T23:59:27.698Z,14.40
